Time;durP1;ratioP1;P1;durP2;ratioP2;P2;SDS_P1;SDS_P2;PMS_P1;PMS_P2;Temp;Humidity;BMP_temperature;BMP_pressure;BME280_temperature;BME280_humidity;BME280_pressure;Samples;Min_cycle;Max_cycle;Signal;HPM_P1;HPM_P2
2022/07/13 00:02:14;;;;;;;7.00;2.08;;;;;;;;;;5014420;28;20111;-84
2022/07/13 00:04:40;;;;;;;5.32;1.38;;;;;;;;;;5034474;28;20090;-84
2022/07/13 00:07:05;;;;;;;3.78;1.58;;;;;;;;;;5035668;28;20450;-83
2022/07/13 00:09:30;;;;;;;3.65;1.60;;;;;;;;;;5035711;28;20049;-83
2022/07/13 00:11:56;;;;;;;6.40;1.50;;;;;;;;;;5036471;28;20053;-84
2022/07/13 00:14:21;;;;;;;3.38;1.60;;;;;;;;;;5033892;28;20056;-83
2022/07/13 00:16:47;;;;;;;4.30;1.60;;;;;;;;;;5017483;28;20168;-83
2022/07/13 00:19:12;;;;;;;3.33;1.52;;;;;;;;;;5035809;28;20551;-83
2022/07/13 00:21:38;;;;;;;4.10;1.55;;;;;;;;;;5035144;28;20480;-83
2022/07/13 00:24:03;;;;;;;3.42;1.50;;;;;;;;;;5025430;28;20033;-84
2022/07/13 00:26:29;;;;;;;4.72;1.50;;;;;;;;;;5038729;28;20514;-83
2022/07/13 00:28:54;;;;;;;9.02;1.50;;;;;;;;;;5033826;28;20416;-83
2022/07/13 00:31:20;;;;;;;6.00;1.48;;;;;;;;;;5047653;28;20067;-85
2022/07/13 00:33:45;;;;;;;3.60;1.60;;;;;;;;;;5045352;28;20066;-84
2022/07/13 00:36:11;;;;;;;3.20;1.67;;;;;;;;;;5009422;28;20480;-84
2022/07/13 00:38:36;;;;;;;4.18;1.33;;;;;;;;;;5047110;28;20029;-84
2022/07/13 00:41:05;;;;;;;5.68;1.95;;;;;;;;;;5045928;28;20061;-85
2022/07/13 00:43:31;;;;;;;2.65;1.45;;;;;;;;;;5034213;28;20116;-84
2022/07/13 00:45:56;;;;;;;5.63;1.83;;;;;;;;;;5017754;28;20061;-84
2022/07/13 00:48:22;;;;;;;3.88;1.50;;;;;;;;;;5033713;28;20037;-84
2022/07/13 00:50:47;;;;;;;4.22;1.70;;;;;;;;;;5026171;28;20029;-84
2022/07/13 00:53:13;;;;;;;3.22;1.20;;;;;;;;;;5005186;28;20044;-84
2022/07/13 00:55:38;;;;;;;4.47;1.60;;;;;;;;;;5013585;28;20021;-84
2022/07/13 00:58:04;;;;;;;4.85;1.50;;;;;;;;;;5030934;28;20035;-84
2022/07/13 01:00:29;;;;;;;5.50;1.30;;;;;;;;;;5053858;28;20460;-83
2022/07/13 01:02:55;;;;;;;3.67;1.40;;;;;;;;;;5035739;28;20033;-83
2022/07/13 01:05:20;;;;;;;5.75;1.50;;;;;;;;;;5044109;28;20029;-83
2022/07/13 01:07:46;;;;;;;4.68;1.20;;;;;;;;;;5040646;28;20037;-84
2022/07/13 01:10:12;;;;;;;5.03;1.65;;;;;;;;;;5021146;28;20092;-83
2022/07/13 01:12:38;;;;;;;3.75;1.65;;;;;;;;;;5000175;28;20388;-82
2022/07/13 01:15:04;;;;;;;5.00;1.33;;;;;;;;;;5033201;28;20374;-83
2022/07/13 01:17:30;;;;;;;6.97;1.52;;;;;;;;;;5033947;28;20476;-83
2022/07/13 01:19:55;;;;;;;4.95;1.40;;;;;;;;;;5034873;28;20042;-83
2022/07/13 01:22:22;;;;;;;4.15;1.40;;;;;;;;;;5033259;28;20388;-82
2022/07/13 01:24:50;;;;;;;4.20;1.30;;;;;;;;;;5034540;28;20030;-82
2022/07/13 01:27:16;;;;;;;5.00;1.30;;;;;;;;;;5013004;28;20042;-83
2022/07/13 01:29:41;;;;;;;3.65;1.40;;;;;;;;;;5032351;28;20112;-83
2022/07/13 01:32:07;;;;;;;5.95;1.70;;;;;;;;;;5032763;28;20041;-83
2022/07/13 01:34:32;;;;;;;4.50;1.30;;;;;;;;;;5035448;28;20044;-83
2022/07/13 01:36:58;;;;;;;3.97;1.27;;;;;;;;;;5033139;28;20029;-83
2022/07/13 01:39:24;;;;;;;4.45;1.30;;;;;;;;;;5016724;28;20121;-83
2022/07/13 01:41:49;;;;;;;2.95;1.30;;;;;;;;;;5040563;28;20380;-83
2022/07/13 01:44:15;;;;;;;2.95;1.25;;;;;;;;;;5039252;28;20088;-83
2022/07/13 01:46:40;;;;;;;2.85;1.23;;;;;;;;;;5051745;28;20032;-84
2022/07/13 01:49:06;;;;;;;5.93;2.10;;;;;;;;;;5051681;28;20029;-84
2022/07/13 01:51:31;;;;;;;8.02;3.28;;;;;;;;;;5052143;28;20128;-83
2022/07/13 01:53:56;;;;;;;4.43;1.98;;;;;;;;;;5033563;28;20044;-84
2022/07/13 01:56:22;;;;;;;4.72;2.53;;;;;;;;;;5039691;28;20033;-83
2022/07/13 01:58:47;;;;;;;2.97;1.65;;;;;;;;;;5051851;28;20032;-83
2022/07/13 02:01:13;;;;;;;4.45;2.00;;;;;;;;;;5051212;28;20127;-84
2022/07/13 02:03:39;;;;;;;6.47;2.50;;;;;;;;;;5052454;28;20033;-83
2022/07/13 02:06:05;;;;;;;5.15;2.60;;;;;;;;;;5051443;28;20062;-84
2022/07/13 02:08:30;;;;;;;5.15;2.80;;;;;;;;;;5051310;28;20392;-84
2022/07/13 02:10:58;;;;;;;5.68;2.92;;;;;;;;;;5035573;28;20048;-84
2022/07/13 02:13:23;;;;;;;7.72;3.58;;;;;;;;;;5035030;28;20460;-83
2022/07/13 02:15:49;;;;;;;5.82;3.15;;;;;;;;;;5051344;28;20041;-85
2022/07/13 02:18:16;;;;;;;10.23;3.33;;;;;;;;;;5050329;28;20033;-85
2022/07/13 02:20:42;;;;;;;11.55;3.45;;;;;;;;;;5051053;28;20028;-84
2022/07/13 02:23:07;;;;;;;12.10;3.20;;;;;;;;;;5049540;28;20024;-84
2022/07/13 02:25:33;;;;;;;7.07;3.15;;;;;;;;;;5034514;28;20098;-84
2022/07/13 02:27:59;;;;;;;8.68;3.03;;;;;;;;;;5050420;28;20029;-84
2022/07/13 02:30:24;;;;;;;5.80;2.88;;;;;;;;;;5051184;28;20035;-84
2022/07/13 02:32:51;;;;;;;7.95;2.80;;;;;;;;;;5031864;28;20123;-85
2022/07/13 02:35:16;;;;;;;4.97;2.70;;;;;;;;;;5033109;28;20149;-84
2022/07/13 02:37:42;;;;;;;9.00;2.80;;;;;;;;;;5039758;28;20021;-83
2022/07/13 02:40:09;;;;;;;7.70;2.53;;;;;;;;;;5037405;28;20162;-84
2022/07/13 02:42:35;;;;;;;4.53;2.13;;;;;;;;;;5036908;28;20063;-85
2022/07/13 02:45:01;;;;;;;6.00;2.70;;;;;;;;;;5036597;28;20049;-84
2022/07/13 02:47:26;;;;;;;5.05;2.22;;;;;;;;;;5035362;28;20033;-83
2022/07/13 02:49:52;;;;;;;7.97;3.20;;;;;;;;;;5036519;28;20068;-83
2022/07/13 02:52:17;;;;;;;6.63;2.88;;;;;;;;;;5036268;28;20025;-85
2022/07/13 02:54:43;;;;;;;7.22;3.10;;;;;;;;;;5035123;28;20034;-83
2022/07/13 02:57:08;;;;;;;6.05;2.90;;;;;;;;;;5036320;28;20472;-83
2022/07/13 02:59:35;;;;;;;8.25;2.88;;;;;;;;;;5015874;28;20058;-84
2022/07/13 03:02:01;;;;;;;4.28;2.47;;;;;;;;;;5028540;28;20442;-83
2022/07/13 03:04:26;;;;;;;3.97;2.60;;;;;;;;;;5034915;28;20131;-84
2022/07/13 03:06:53;;;;;;;6.32;3.00;;;;;;;;;;5016491;28;20565;-84
2022/07/13 03:09:19;;;;;;;8.77;3.40;;;;;;;;;;5035248;28;20045;-84
2022/07/13 03:11:44;;;;;;;8.00;4.10;;;;;;;;;;5035823;28;20049;-84
2022/07/13 03:14:11;;;;;;;11.38;4.50;;;;;;;;;;5036000;28;20037;-84
2022/07/13 03:16:36;;;;;;;6.72;4.20;;;;;;;;;;5016463;28;20037;-84
2022/07/13 03:19:02;;;;;;;9.07;4.43;;;;;;;;;;5019055;28;20099;-84
2022/07/13 03:21:29;;;;;;;8.95;4.03;;;;;;;;;;5036513;28;20029;-84
2022/07/13 03:23:55;;;;;;;9.07;3.80;;;;;;;;;;5035065;28;20130;-83
2022/07/13 03:26:21;;;;;;;8.20;3.35;;;;;;;;;;5020142;28;20049;-83
2022/07/13 03:28:47;;;;;;;6.13;2.83;;;;;;;;;;5049473;28;20404;-85
2022/07/13 03:31:13;;;;;;;9.60;2.78;;;;;;;;;;5036277;28;20025;-83
2022/07/13 03:33:39;;;;;;;4.30;2.28;;;;;;;;;;5046539;28;20040;-86
2022/07/13 03:36:04;;;;;;;6.30;2.30;;;;;;;;;;5048507;28;20066;-84
2022/07/13 03:38:31;;;;;;;6.63;2.40;;;;;;;;;;5033512;28;20485;-84
2022/07/13 03:40:56;;;;;;;8.80;2.85;;;;;;;;;;5050338;28;20033;-84
2022/07/13 03:43:22;;;;;;;5.35;2.10;;;;;;;;;;5033635;28;20388;-83
2022/07/13 03:45:48;;;;;;;8.25;2.00;;;;;;;;;;5029520;28;20021;-83
2022/07/13 03:48:16;;;;;;;4.88;1.77;;;;;;;;;;5028664;28;20044;-85
2022/07/13 03:50:42;;;;;;;3.53;1.80;;;;;;;;;;5044402;28;20038;-81
2022/07/13 03:53:07;;;;;;;3.67;1.55;;;;;;;;;;5049041;28;20033;-86
2022/07/13 03:55:33;;;;;;;4.85;1.52;;;;;;;;;;5033129;28;20422;-84
2022/07/13 03:57:59;;;;;;;4.93;1.75;;;;;;;;;;5047940;28;20078;-85
2022/07/13 04:00:25;;;;;;;4.63;1.40;;;;;;;;;;5006869;28;20033;-84
2022/07/13 04:02:52;;;;;;;4.40;1.60;;;;;;;;;;5015822;28;20091;-83
2022/07/13 04:05:19;;;;;;;4.97;2.15;;;;;;;;;;5016599;28;20069;-84
2022/07/13 04:07:45;;;;;;;4.32;1.40;;;;;;;;;;5031310;28;20045;-84
2022/07/13 04:10:11;;;;;;;2.97;1.67;;;;;;;;;;5048798;28;20061;-82
2022/07/13 04:12:40;;;;;;;4.32;1.73;;;;;;;;;;5031891;28;20496;-84
2022/07/13 04:15:06;;;;;;;5.82;1.80;;;;;;;;;;5038454;28;20048;-83
2022/07/13 04:17:32;;;;;;;7.13;1.75;;;;;;;;;;5048573;28;20036;-83
2022/07/13 04:19:58;;;;;;;2.30;1.38;;;;;;;;;;5048394;28;20025;-83
2022/07/13 04:22:24;;;;;;;4.30;1.25;;;;;;;;;;5049846;28;20036;-84
2022/07/13 04:24:50;;;;;;;5.22;1.70;;;;;;;;;;5049535;28;20025;-83
2022/07/13 04:27:15;;;;;;;5.38;1.60;;;;;;;;;;5046903;28;20416;-84
2022/07/13 04:29:41;;;;;;;3.63;1.90;;;;;;;;;;5044221;28;20021;-82
2022/07/13 04:32:07;;;;;;;6.50;1.77;;;;;;;;;;5051832;28;20396;-83
2022/07/13 04:34:33;;;;;;;5.28;1.80;;;;;;;;;;5052784;28;20025;-83
2022/07/13 04:36:59;;;;;;;5.32;2.10;;;;;;;;;;5051845;28;20059;-82
2022/07/13 04:39:26;;;;;;;6.15;1.50;;;;;;;;;;5035623;28;20029;-83
2022/07/13 04:41:52;;;;;;;3.70;1.88;;;;;;;;;;5052478;28;20029;-83
2022/07/13 04:44:20;;;;;;;5.40;1.90;;;;;;;;;;5051006;28;20028;-84
2022/07/13 04:46:46;;;;;;;5.20;2.35;;;;;;;;;;5013884;28;20046;-84
2022/07/13 04:49:12;;;;;;;4.75;1.65;;;;;;;;;;4998363;28;20033;-86
2022/07/13 04:51:37;;;;;;;5.15;2.00;;;;;;;;;;5036703;28;20044;-85
2022/07/13 04:54:05;;;;;;;3.22;1.50;;;;;;;;;;5039922;28;20035;-83
2022/07/13 04:56:31;;;;;;;4.90;1.90;;;;;;;;;;5019672;28;20483;-84
2022/07/13 04:58:58;;;;;;;5.38;1.42;;;;;;;;;;5019581;28;20020;-83
2022/07/13 05:01:23;;;;;;;7.80;3.53;;;;;;;;;;5034786;28;20033;-83
2022/07/13 05:03:50;;;;;;;4.28;2.53;;;;;;;;;;5052453;28;20032;-83
2022/07/13 05:06:16;;;;;;;6.50;3.38;;;;;;;;;;5025160;28;20038;-83
2022/07/13 05:08:42;;;;;;;3.92;1.88;;;;;;;;;;5034019;28;20029;-83
2022/07/13 05:11:08;;;;;;;4.65;2.40;;;;;;;;;;5015832;28;20496;-84
2022/07/13 05:13:34;;;;;;;6.32;1.80;;;;;;;;;;5017187;28;20408;-84
2022/07/13 05:16:00;;;;;;;4.85;1.60;;;;;;;;;;5015680;28;20105;-83
2022/07/13 05:18:26;;;;;;;4.05;1.45;;;;;;;;;;5032341;28;20025;-83
2022/07/13 05:20:53;;;;;;;3.28;1.52;;;;;;;;;;5015598;28;20128;-82
2022/07/13 05:23:19;;;;;;;3.70;1.55;;;;;;;;;;5033470;28;20067;-84
2022/07/13 05:25:45;;;;;;;4.68;1.20;;;;;;;;;;5032961;28;20088;-82
2022/07/13 05:28:10;;;;;;;3.28;1.23;;;;;;;;;;5033487;28;20054;-83
2022/07/13 05:30:38;;;;;;;4.50;1.25;;;;;;;;;;5034065;28;20390;-85
2022/07/13 05:33:05;;;;;;;4.05;1.30;;;;;;;;;;5033140;28;20638;-84
2022/07/13 05:35:30;;;;;;;5.05;1.40;;;;;;;;;;5033140;28;20118;-83
2022/07/13 05:37:56;;;;;;;3.70;1.40;;;;;;;;;;5013202;28;20445;-83
2022/07/13 05:40:22;;;;;;;2.58;1.20;;;;;;;;;;4997835;28;20033;-84
2022/07/13 05:42:48;;;;;;;4.20;1.30;;;;;;;;;;5036721;28;20056;-83
2022/07/13 05:45:13;;;;;;;3.20;1.33;;;;;;;;;;5051940;28;20086;-84
2022/07/13 05:47:43;;;;;;;5.97;1.40;;;;;;;;;;5035299;28;20029;-84
2022/07/13 05:50:11;;;;;;;3.55;1.08;;;;;;;;;;5009793;28;20045;-83
2022/07/13 05:52:36;;;;;;;2.70;0.90;;;;;;;;;;5035475;28;20036;-83
2022/07/13 05:55:03;;;;;;;3.00;1.30;;;;;;;;;;5052783;28;20040;-82
2022/07/13 05:57:29;;;;;;;4.30;1.02;;;;;;;;;;5035343;28;20021;-84
2022/07/13 05:59:54;;;;;;;2.92;0.93;;;;;;;;;;5034217;28;20037;-86
2022/07/13 06:02:20;;;;;;;4.22;1.10;;;;;;;;;;4999737;28;20029;-84
2022/07/13 06:04:46;;;;;;;2.17;0.93;;;;;;;;;;5042235;28;20045;-84
2022/07/13 06:07:12;;;;;;;3.50;1.77;;;;;;;;;;5016642;28;20027;-83
2022/07/13 06:09:38;;;;;;;3.22;1.27;;;;;;;;;;4999090;28;20077;-83
2022/07/13 06:12:03;;;;;;;3.30;1.10;;;;;;;;;;5031857;28;20554;-83
2022/07/13 06:14:28;;;;;;;6.65;1.42;;;;;;;;;;5032280;28;20124;-82
2022/07/13 06:16:54;;;;;;;2.90;0.90;;;;;;;;;;5034397;28;20104;-83
2022/07/13 06:19:19;;;;;;;1.70;0.95;;;;;;;;;;5033640;28;20040;-83
2022/07/13 06:21:45;;;;;;;2.15;1.17;;;;;;;;;;5034468;28;20109;-83
2022/07/13 06:24:10;;;;;;;4.90;1.58;;;;;;;;;;5033437;28;20116;-83
2022/07/13 06:26:36;;;;;;;2.47;1.20;;;;;;;;;;5032854;28;20052;-84
2022/07/13 06:29:01;;;;;;;3.33;1.35;;;;;;;;;;5032526;28;20060;-84
2022/07/13 06:31:27;;;;;;;3.25;1.60;;;;;;;;;;5015945;28;20067;-83
2022/07/13 06:33:53;;;;;;;3.63;1.65;;;;;;;;;;5033693;28;20080;-83
2022/07/13 06:36:19;;;;;;;3.85;1.00;;;;;;;;;;5035217;28;20052;-84
2022/07/13 06:38:44;;;;;;;2.17;0.90;;;;;;;;;;5032998;28;20033;-84
2022/07/13 06:41:10;;;;;;;5.70;1.20;;;;;;;;;;5017545;28;20021;-83
2022/07/13 06:43:35;;;;;;;2.15;0.93;;;;;;;;;;5043663;28;20068;-84
2022/07/13 06:46:01;;;;;;;4.38;1.10;;;;;;;;;;5045366;28;20025;-84
2022/07/13 06:48:26;;;;;;;3.40;1.05;;;;;;;;;;5039799;28;20033;-83
2022/07/13 06:50:52;;;;;;;3.35;1.17;;;;;;;;;;5033833;28;20484;-83
2022/07/13 06:53:17;;;;;;;1.63;0.88;;;;;;;;;;5034049;28;20098;-83
2022/07/13 06:55:43;;;;;;;2.38;0.95;;;;;;;;;;5049928;28;20056;-85
2022/07/13 06:58:09;;;;;;;4.20;1.10;;;;;;;;;;5034390;28;20029;-84
2022/07/13 07:00:34;;;;;;;2.38;0.90;;;;;;;;;;5050708;28;20017;-84
2022/07/13 07:03:00;;;;;;;2.05;1.10;;;;;;;;;;5034085;28;20124;-84
2022/07/13 07:05:26;;;;;;;2.22;1.23;;;;;;;;;;5032950;28;20450;-84
2022/07/13 07:07:52;;;;;;;3.88;1.20;;;;;;;;;;5050585;28;20392;-84
2022/07/13 07:10:17;;;;;;;2.28;1.10;;;;;;;;;;5049724;28;20445;-84
2022/07/13 07:12:43;;;;;;;2.50;0.82;;;;;;;;;;5039427;28;20033;-83
2022/07/13 07:15:09;;;;;;;1.05;0.80;;;;;;;;;;5051210;28;20120;-84
2022/07/13 07:17:42;;;;;;;2.25;1.00;;;;;;;;;;5051040;28;20032;-84
2022/07/13 07:20:08;;;;;;;1.80;0.90;;;;;;;;;;5033721;28;20040;-83
2022/07/13 07:22:34;;;;;;;3.05;1.02;;;;;;;;;;5034171;28;20021;-83
2022/07/13 07:24:59;;;;;;;6.63;1.20;;;;;;;;;;5019341;28;20033;-86
2022/07/13 07:27:25;;;;;;;1.80;0.90;;;;;;;;;;5037213;28;20622;-83
2022/07/13 07:29:50;;;;;;;5.03;0.90;;;;;;;;;;5054025;28;20591;-83
2022/07/13 07:32:16;;;;;;;3.08;1.17;;;;;;;;;;5055714;28;20115;-83
2022/07/13 07:34:41;;;;;;;2.70;1.25;;;;;;;;;;5055915;28;20037;-84
2022/07/13 07:37:06;;;;;;;3.10;1.10;;;;;;;;;;5053857;28;20106;-85
2022/07/13 07:39:32;;;;;;;4.30;0.88;;;;;;;;;;5037425;28;20112;-83
2022/07/13 07:41:59;;;;;;;3.25;1.02;;;;;;;;;;5053702;28;20055;-88
2022/07/13 07:44:24;;;;;;;1.92;0.85;;;;;;;;;;5006257;28;20068;-83
2022/07/13 07:46:50;;;;;;;5.25;1.10;;;;;;;;;;5014623;28;20437;-84
2022/07/13 07:49:15;;;;;;;2.65;0.90;;;;;;;;;;5014005;28;20106;-84
2022/07/13 07:51:41;;;;;;;2.75;1.00;;;;;;;;;;5018223;28;20048;-84
2022/07/13 07:54:06;;;;;;;3.42;1.00;;;;;;;;;;5018084;28;20037;-83
2022/07/13 07:56:32;;;;;;;4.38;1.00;;;;;;;;;;4998530;28;20017;-83
2022/07/13 07:58:57;;;;;;;1.65;0.82;;;;;;;;;;5030097;28;20087;-83
2022/07/13 08:01:23;;;;;;;3.42;1.08;;;;;;;;;;5034805;28;20029;-84
2022/07/13 08:03:49;;;;;;;5.70;1.00;;;;;;;;;;5016653;28;20034;-83
2022/07/13 08:06:15;;;;;;;2.47;0.85;;;;;;;;;;5014711;28;20025;-84
2022/07/13 08:08:41;;;;;;;2.78;1.00;;;;;;;;;;5013564;28;20048;-83
2022/07/13 08:11:07;;;;;;;3.70;1.80;;;;;;;;;;5035085;28;20038;-84
2022/07/13 08:13:33;;;;;;;3.33;1.13;;;;;;;;;;5035629;28;20427;-83
2022/07/13 08:15:58;;;;;;;4.82;0.93;;;;;;;;;;5035186;28;20468;-87
2022/07/13 08:18:24;;;;;;;2.00;1.00;;;;;;;;;;5034769;28;20041;-84
2022/07/13 08:20:49;;;;;;;8.55;5.45;;;;;;;;;;5035241;28;20025;-83
2022/07/13 08:25:59;;;;;;;3.60;1.63;;;;;;;;;;5033897;28;20114;-83
2022/07/13 08:28:24;;;;;;;3.80;1.27;;;;;;;;;;5034082;28;20080;-85
2022/07/13 08:30:50;;;;;;;1.30;0.82;;;;;;;;;;5034215;28;20034;-84
2022/07/13 08:33:15;;;;;;;1.00;0.70;;;;;;;;;;5033139;28;20037;-83
2022/07/13 08:38:40;;;;;;;1.88;1.00;;;;;;;;;;5033431;28;20032;-83
2022/07/13 08:41:06;;;;;;;2.25;1.20;;;;;;;;;;5016986;28;20037;-84
2022/07/13 08:43:33;;;;;;;2.67;1.23;;;;;;;;;;5033662;28;20075;-85
2022/07/13 08:46:01;;;;;;;2.60;0.85;;;;;;;;;;5034063;28;20041;-83
2022/07/13 08:48:29;;;;;;;5.47;1.17;;;;;;;;;;5017178;28;20021;-82
2022/07/13 08:50:54;;;;;;;4.55;2.05;;;;;;;;;;5033414;28;20052;-84
2022/07/13 08:53:20;;;;;;;5.38;1.90;;;;;;;;;;5034164;28;20029;-83
2022/07/13 08:55:45;;;;;;;3.40;1.70;;;;;;;;;;5013583;28;20045;-84
2022/07/13 08:58:11;;;;;;;2.28;1.17;;;;;;;;;;5016554;28;20388;-84
2022/07/13 09:00:36;;;;;;;4.53;1.20;;;;;;;;;;5001060;28;20403;-85
2022/07/13 09:03:02;;;;;;;3.08;0.90;;;;;;;;;;5013103;28;20037;-84
2022/07/13 09:05:27;;;;;;;3.15;1.70;;;;;;;;;;5030128;28;20488;-84
2022/07/13 09:08:03;;;;;;;4.00;1.73;;;;;;;;;;5034299;28;20068;-83
2022/07/13 09:10:28;;;;;;;2.90;0.98;;;;;;;;;;5033015;28;20065;-85
2022/07/13 09:12:54;;;;;;;4.93;0.82;;;;;;;;;;4987072;28;20045;-83
2022/07/13 09:15:20;;;;;;;2.30;0.90;;;;;;;;;;5025391;28;20505;-83
2022/07/13 09:17:47;;;;;;;2.83;1.00;;;;;;;;;;5047133;28;20120;-82
2022/07/13 09:20:12;;;;;;;2.72;1.30;;;;;;;;;;5045454;28;20087;-84
2022/07/13 09:22:54;;;;;;;2.70;0.85;;;;;;;;;;5045730;28;20041;-83
2022/07/13 09:25:26;;;;;;;2.03;0.93;;;;;;;;;;5046554;28;20048;-85
2022/07/13 09:27:53;;;;;;;0.57;0.57;;;;;;;;;;5043338;28;20033;-84
2022/07/13 09:30:23;;;;;;;2.75;0.80;;;;;;;;;;5030697;28;20538;-85
2022/07/13 09:32:50;;;;;;;3.05;0.80;;;;;;;;;;5053065;28;20519;-84
2022/07/13 09:35:15;;;;;;;4.55;1.00;;;;;;;;;;5032371;28;20036;-84
2022/07/13 09:37:41;;;;;;;3.22;0.80;;;;;;;;;;5015922;28;20034;-83
2022/07/13 09:40:06;;;;;;;1.85;0.77;;;;;;;;;;5032844;28;20495;-84
2022/07/13 09:42:41;;;;;;;1.92;0.80;;;;;;;;;;5032610;28;20029;-85
2022/07/13 09:47:55;;;;;;;1.23;0.80;;;;;;;;;;5052782;28;20083;-85
2022/07/13 09:50:22;;;;;;;1.42;0.80;;;;;;;;;;5051979;28;20075;-83
2022/07/13 09:52:47;;;;;;;4.72;1.08;;;;;;;;;;5035568;28;20041;-83
2022/07/13 09:55:15;;;;;;;2.40;1.00;;;;;;;;;;5052663;28;20036;-84
2022/07/13 09:57:45;;;;;;;4.47;0.82;;;;;;;;;;5017782;28;20036;-84
2022/07/13 10:00:11;;;;;;;3.38;0.80;;;;;;;;;;5032496;28;20087;-84
2022/07/13 10:02:37;;;;;;;2.47;0.90;;;;;;;;;;5033751;28;20025;-85
2022/07/13 10:05:03;;;;;;;1.17;0.73;;;;;;;;;;5051685;28;20492;-84
2022/07/13 10:07:30;;;;;;;4.82;0.98;;;;;;;;;;5052895;28;20025;-85
2022/07/13 10:09:57;;;;;;;2.40;1.02;;;;;;;;;;5050817;28;20508;-84
2022/07/13 10:12:23;;;;;;;1.55;0.80;;;;;;;;;;5018224;28;20061;-85
2022/07/13 10:14:48;;;;;;;4.47;1.45;;;;;;;;;;5051548;28;20068;-84
2022/07/13 10:17:14;;;;;;;1.80;1.00;;;;;;;;;;5034435;28;20029;-83
2022/07/13 10:19:43;;;;;;;3.55;0.93;;;;;;;;;;5035190;28;20120;-85
2022/07/13 10:22:11;;;;;;;2.35;0.80;;;;;;;;;;5034247;28;20439;-84
2022/07/13 10:24:37;;;;;;;2.20;0.60;;;;;;;;;;5034839;28;20591;-84
2022/07/13 10:27:18;;;;;;;2.53;0.75;;;;;;;;;;5009312;28;20112;-85
2022/07/13 10:29:50;;;;;;;1.73;0.70;;;;;;;;;;5032542;28;20045;-87
2022/07/13 10:32:16;;;;;;;4.78;0.75;;;;;;;;;;5031924;28;20042;-85
2022/07/13 10:35:09;;;;;;;2.25;0.70;;;;;;;;;;5032227;28;20506;-85
2022/07/13 10:37:55;;;;;;;2.20;0.70;;;;;;;;;;5031703;28;20116;-89
2022/07/13 10:40:20;;;;;;;1.98;0.90;;;;;;;;;;5033049;28;20059;-86
2022/07/13 10:43:03;;;;;;;4.72;0.90;;;;;;;;;;5031598;28;20029;-85
2022/07/13 10:45:42;;;;;;;2.28;0.70;;;;;;;;;;5031517;28;20048;-84
2022/07/13 10:48:17;;;;;;;3.42;0.90;;;;;;;;;;5031261;28;20511;-84
2022/07/13 10:50:54;;;;;;;4.95;0.90;;;;;;;;;;5045608;28;20043;-85
2022/07/13 10:53:19;;;;;;;1.20;0.73;;;;;;;;;;5015841;28;20492;-84
2022/07/13 10:55:48;;;;;;;1.58;0.68;;;;;;;;;;5015187;28;20026;-84
2022/07/13 10:58:29;;;;;;;5.75;0.98;;;;;;;;;;5015320;28;20626;-84
2022/07/13 11:00:55;;;;;;;1.23;0.57;;;;;;;;;;5036820;28;20033;-89
2022/07/13 11:03:26;;;;;;;2.65;0.80;;;;;;;;;;5047439;28;20025;-84
2022/07/13 11:06:08;;;;;;;3.08;0.75;;;;;;;;;;5041828;28;20048;-84
2022/07/13 11:08:34;;;;;;;4.78;0.60;;;;;;;;;;5039945;28;20046;-84
2022/07/13 11:11:18;;;;;;;1.55;0.70;;;;;;;;;;5031568;28;20045;-83
2022/07/13 11:13:45;;;;;;;3.75;1.25;;;;;;;;;;4999731;28;20092;-85
2022/07/13 11:16:10;;;;;;;2.92;0.73;;;;;;;;;;5045387;28;20029;-83
2022/07/13 11:18:36;;;;;;;3.50;0.63;;;;;;;;;;5037970;28;20492;-84
2022/07/13 11:21:06;;;;;;;2.10;0.60;;;;;;;;;;5044902;28;20029;-87
2022/07/13 11:26:31;;;;;;;0.93;0.60;;;;;;;;;;5054209;28;20495;-88
2022/07/13 11:29:03;;;;;;;1.63;0.60;;;;;;;;;;5056085;28;20510;-86
2022/07/13 11:31:29;;;;;;;1.42;0.60;;;;;;;;;;5054985;28;20040;-85
2022/07/13 11:33:54;;;;;;;1.35;0.50;;;;;;;;;;5038012;28;20122;-84
2022/07/13 11:36:20;;;;;;;2.58;0.70;;;;;;;;;;5052891;28;20025;-84
2022/07/13 11:38:46;;;;;;;2.33;0.60;;;;;;;;;;5053242;28;20036;-84
2022/07/13 11:41:19;;;;;;;1.83;0.50;;;;;;;;;;5032117;28;20063;-84
2022/07/13 11:43:45;;;;;;;6.07;0.73;;;;;;;;;;5002458;28;20036;-84
2022/07/13 11:46:11;;;;;;;1.70;0.65;;;;;;;;;;5037866;28;20104;-86
2022/07/13 11:48:36;;;;;;;3.20;0.50;;;;;;;;;;5035986;28;20037;-84
2022/07/13 11:51:05;;;;;;;4.72;0.70;;;;;;;;;;5037134;28;20044;-83
2022/07/13 11:53:31;;;;;;;2.85;0.57;;;;;;;;;;5018425;28;20044;-84
2022/07/13 11:56:04;;;;;;;1.73;0.70;;;;;;;;;;5035351;28;20017;-84
2022/07/13 11:58:31;;;;;;;1.67;0.75;;;;;;;;;;5018787;28;20443;-85
2022/07/13 12:00:57;;;;;;;0.98;0.45;;;;;;;;;;5018741;28;20029;-86
2022/07/13 12:03:27;;;;;;;4.57;1.15;;;;;;;;;;5034360;28;20025;-85
2022/07/13 12:05:52;;;;;;;2.45;0.55;;;;;;;;;;5035587;28;20484;-85
2022/07/13 12:08:18;;;;;;;2.20;0.50;;;;;;;;;;5035115;28;20041;-85
2022/07/13 12:10:43;;;;;;;2.58;0.70;;;;;;;;;;5035124;28;20085;-85
2022/07/13 12:13:09;;;;;;;2.20;0.52;;;;;;;;;;5034284;28;20033;-85
2022/07/13 12:15:34;;;;;;;1.00;0.50;;;;;;;;;;5018740;28;20052;-85
2022/07/13 12:18:02;;;;;;;4.00;0.73;;;;;;;;;;5035285;28;20059;-84
2022/07/13 12:20:27;;;;;;;4.38;0.77;;;;;;;;;;5015128;28;20036;-84
2022/07/13 12:22:54;;;;;;;1.05;0.40;;;;;;;;;;5011345;28;20033;-85
2022/07/13 12:25:23;;;;;;;1.50;0.63;;;;;;;;;;5034985;28;20045;-85
2022/07/13 12:27:52;;;;;;;2.53;0.52;;;;;;;;;;5034460;28;20381;-85
2022/07/13 12:30:18;;;;;;;5.45;0.68;;;;;;;;;;5035062;28;20083;-84
2022/07/13 12:32:56;;;;;;;3.35;0.60;;;;;;;;;;5035190;28;20065;-84
2022/07/13 12:35:25;;;;;;;0.88;0.60;;;;;;;;;;5023760;28;20048;-84
2022/07/13 12:37:52;;;;;;;1.45;0.70;;;;;;;;;;5033589;28;20033;-84
2022/07/13 12:40:36;;;;;;;2.58;0.50;;;;;;;;;;5034511;28;20068;-85
2022/07/13 12:43:02;;;;;;;1.60;0.60;;;;;;;;;;5038202;28;20039;-85
2022/07/13 12:45:31;;;;;;;2.25;0.55;;;;;;;;;;5053906;28;20029;-84
2022/07/13 12:47:56;;;;;;;3.50;0.60;;;;;;;;;;5019939;28;20550;-85
2022/07/13 12:50:26;;;;;;;2.38;0.60;;;;;;;;;;5019483;28;20071;-85
2022/07/13 12:53:00;;;;;;;1.83;0.75;;;;;;;;;;5041503;28;20033;-84
2022/07/13 12:55:26;;;;;;;3.03;0.60;;;;;;;;;;5033705;28;20505;-85
2022/07/13 12:57:52;;;;;;;1.55;0.70;;;;;;;;;;5051062;28;20112;-84
2022/07/13 13:00:24;;;;;;;2.33;0.63;;;;;;;;;;5036824;28;20056;-84
2022/07/13 13:02:50;;;;;;;4.35;0.70;;;;;;;;;;5036802;28;20496;-87
2022/07/13 13:05:15;;;;;;;4.10;0.47;;;;;;;;;;5041242;28;20040;-85
2022/07/13 13:07:42;;;;;;;3.80;0.43;;;;;;;;;;5051377;28;20040;-84
2022/07/13 13:10:07;;;;;;;1.25;0.50;;;;;;;;;;5053797;28;20063;-87
2022/07/13 13:12:33;;;;;;;1.35;0.60;;;;;;;;;;5035839;28;20024;-84
2022/07/13 13:14:59;;;;;;;1.15;0.50;;;;;;;;;;5035439;28;20048;-83
2022/07/13 13:17:27;;;;;;;1.85;0.50;;;;;;;;;;5052103;28;20114;-87
2022/07/13 13:19:54;;;;;;;3.17;0.75;;;;;;;;;;5037615;28;20151;-87
2022/07/13 13:22:20;;;;;;;3.17;0.60;;;;;;;;;;5051718;28;20061;-86
2022/07/13 13:24:46;;;;;;;1.13;0.50;;;;;;;;;;5054847;28;20100;-86
2022/07/13 13:27:12;;;;;;;5.50;0.70;;;;;;;;;;5035057;28;20079;-85
2022/07/13 13:32:21;;;;;;;0.85;0.50;;;;;;;;;;5036984;28;20124;-84
2022/07/13 13:34:47;;;;;;;2.70;0.55;;;;;;;;;;5048984;28;20460;-84
2022/07/13 13:37:12;;;;;;;1.95;0.50;;;;;;;;;;5052102;28;20519;-86
2022/07/13 13:39:37;;;;;;;1.02;0.60;;;;;;;;;;5048814;28;20534;-84
2022/07/13 13:42:03;;;;;;;1.15;0.60;;;;;;;;;;5035897;28;20032;-84
2022/07/13 13:44:29;;;;;;;2.03;0.38;;;;;;;;;;5019191;28;20024;-83
2022/07/13 13:46:54;;;;;;;3.67;0.60;;;;;;;;;;5032842;28;20033;-86
2022/07/13 13:49:20;;;;;;;0.77;0.50;;;;;;;;;;5033795;28;20391;-84
2022/07/13 13:51:45;;;;;;;2.13;0.55;;;;;;;;;;5012831;28;20041;-83
2022/07/13 13:54:11;;;;;;;4.72;0.80;;;;;;;;;;5030407;28;20427;-84
2022/07/13 13:56:37;;;;;;;4.03;0.70;;;;;;;;;;5013124;28;20389;-83
2022/07/13 13:59:02;;;;;;;1.20;0.57;;;;;;;;;;5013595;28;20060;-85
2022/07/13 14:01:28;;;;;;;1.17;0.50;;;;;;;;;;5033457;28;20029;-89
2022/07/13 14:03:53;;;;;;;4.68;0.60;;;;;;;;;;5033101;28;20115;-84
2022/07/13 14:06:19;;;;;;;2.28;0.60;;;;;;;;;;5013245;28;20045;-84
2022/07/13 14:08:45;;;;;;;2.90;0.90;;;;;;;;;;5012341;28;20148;-84
2022/07/13 14:11:13;;;;;;;1.25;0.60;;;;;;;;;;5033303;28;20033;-85
2022/07/13 14:13:40;;;;;;;3.13;0.73;;;;;;;;;;5034086;28;20065;-83
2022/07/13 14:16:05;;;;;;;2.08;0.50;;;;;;;;;;5033105;28;20450;-85
2022/07/13 14:18:31;;;;;;;1.27;0.50;;;;;;;;;;5016884;28;20029;-84
2022/07/13 14:20:57;;;;;;;0.77;0.47;;;;;;;;;;5013202;28;20057;-85
2022/07/13 14:23:22;;;;;;;3.45;0.60;;;;;;;;;;5013479;28;20032;-83
2022/07/13 14:25:49;;;;;;;3.88;0.60;;;;;;;;;;5012896;28;20044;-84
2022/07/13 14:28:15;;;;;;;1.95;0.68;;;;;;;;;;5028926;28;20036;-84
2022/07/13 14:30:40;;;;;;;1.65;1.00;;;;;;;;;;5033293;28;20037;-87
2022/07/13 14:33:06;;;;;;;2.33;0.73;;;;;;;;;;5034823;28;20091;-83
2022/07/13 14:35:31;;;;;;;3.30;1.10;;;;;;;;;;5013021;28;20090;-83
2022/07/13 14:37:57;;;;;;;3.33;0.95;;;;;;;;;;5055748;28;20044;-84
2022/07/13 14:40:22;;;;;;;2.22;1.00;;;;;;;;;;5023946;28;20120;-89
2022/07/13 14:42:48;;;;;;;1.75;0.70;;;;;;;;;;5007617;28;20124;-83
2022/07/13 14:45:13;;;;;;;1.98;0.70;;;;;;;;;;5036667;28;20087;-83
2022/07/13 14:47:38;;;;;;;2.65;0.50;;;;;;;;;;5036203;28;20025;-83
2022/07/13 14:50:04;;;;;;;1.00;0.60;;;;;;;;;;5046234;28;20037;-84
2022/07/13 14:52:30;;;;;;;1.10;0.60;;;;;;;;;;5041747;28;20033;-81
2022/07/13 14:54:55;;;;;;;2.38;0.60;;;;;;;;;;5036342;28;20484;-83